createdAt,value
2023-04-09T00:00:30.735Z,6.57
2023-04-09T00:02:58.653Z,3.33
2023-04-09T00:05:26.381Z,2.83
2023-04-09T00:07:53.990Z,4.50
2023-04-09T00:10:22.035Z,3.75
2023-04-09T00:12:49.615Z,4.07
2023-04-09T00:15:27.919Z,3.85
2023-04-09T00:18:00.326Z,4.97
2023-04-09T00:20:27.912Z,6.22
2023-04-09T00:22:56.425Z,4.30
2023-04-09T00:25:24.040Z,5.20
2023-04-09T00:27:51.640Z,5.70
2023-04-09T00:30:19.239Z,3.60
2023-04-09T00:32:46.967Z,5.28
2023-04-09T00:35:17.359Z,4.90
2023-04-09T00:37:45.653Z,5.35
2023-04-09T00:40:13.350Z,4.28
2023-04-09T00:42:41.592Z,4.40
2023-04-09T00:45:10.037Z,6.47
2023-04-09T00:47:37.829Z,3.70
2023-04-09T00:50:06.360Z,5.32
2023-04-09T00:52:35.398Z,4.78
2023-04-09T00:55:06.179Z,5.32
2023-04-09T00:57:33.745Z,4.82
2023-04-09T01:00:01.364Z,5.80
2023-04-09T01:02:30.765Z,4.93
2023-04-09T01:04:58.737Z,6.60
2023-04-09T01:07:37.825Z,4.55
2023-04-09T01:10:17.968Z,5.95
2023-04-09T01:12:55.626Z,5.57
2023-04-09T01:15:27.634Z,6.68
2023-04-09T01:18:03.633Z,7.30
2023-04-09T01:20:36.520Z,6.35
2023-04-09T01:23:15.364Z,5.63
2023-04-09T01:25:57.379Z,6.07
2023-04-09T01:28:32.670Z,5.97
2023-04-09T01:31:03.703Z,8.25
2023-04-09T01:33:32.500Z,7.35
2023-04-09T01:36:01.094Z,6.75
2023-04-09T01:38:29.551Z,6.38
2023-04-09T01:40:58.391Z,6.38
2023-04-09T01:43:28.472Z,6.15
2023-04-09T01:45:56.634Z,6.22
2023-04-09T01:48:24.779Z,6.68
2023-04-09T01:50:52.995Z,6.93
2023-04-09T01:53:20.945Z,6.20
2023-04-09T01:55:48.663Z,7.05
2023-04-09T01:58:16.418Z,6.35
2023-04-09T02:00:49.064Z,6.88
2023-04-09T02:03:21.568Z,6.35
2023-04-09T02:05:56.899Z,5.05
2023-04-09T02:08:26.095Z,6.40
2023-04-09T02:10:59.090Z,5.80
2023-04-09T02:13:27.322Z,5.95
2023-04-09T02:15:59.724Z,6.95
2023-04-09T02:18:28.863Z,5.35
2023-04-09T02:20:57.603Z,5.65
2023-04-09T02:23:26.266Z,5.80
2023-04-09T02:25:54.825Z,6.20
2023-04-09T02:28:22.379Z,6.50
2023-04-09T02:30:52.535Z,6.80
2023-04-09T02:33:21.860Z,5.13
2023-04-09T02:35:49.681Z,6.53
2023-04-09T02:38:17.328Z,5.85
2023-04-09T02:40:44.876Z,7.22
2023-04-09T02:43:12.492Z,6.80
2023-04-09T02:45:40.022Z,7.03
2023-04-09T02:48:07.640Z,6.85
2023-04-09T02:50:37.863Z,6.93
2023-04-09T02:53:05.486Z,7.03
2023-04-09T02:55:33.116Z,5.70
2023-04-09T02:58:00.774Z,6.03
2023-04-09T03:00:28.487Z,6.60
2023-04-09T03:02:56.782Z,6.32
2023-04-09T03:05:24.678Z,5.97
2023-04-09T03:07:55.898Z,6.38
2023-04-09T03:10:23.726Z,7.78
2023-04-09T03:12:51.317Z,8.10
2023-04-09T03:15:19.076Z,6.78
2023-04-09T03:17:46.683Z,6.88
2023-04-09T03:20:14.709Z,7.40
2023-04-09T03:22:43.068Z,6.40
2023-04-09T03:25:29.634Z,6.63
2023-04-09T03:27:57.259Z,6.53
2023-04-09T03:30:34.808Z,8.82
2023-04-09T03:33:04.663Z,7.95
2023-04-09T03:35:36.784Z,6.13
2023-04-09T03:38:04.364Z,5.43
2023-04-09T03:40:34.294Z,7.38
2023-04-09T03:43:01.847Z,6.07
2023-04-09T03:45:30.354Z,6.05
2023-04-09T03:48:11.144Z,6.22
2023-04-09T03:50:40.745Z,5.95
2023-04-09T03:53:10.784Z,4.53
2023-04-09T03:55:40.532Z,7.03
2023-04-09T03:58:15.828Z,6.07
2023-04-09T04:00:43.585Z,5.00
2023-04-09T04:06:14.474Z,6.00
2023-04-09T04:09:02.530Z,5.60
2023-04-09T04:11:55.299Z,5.43
2023-04-09T04:14:26.232Z,6.18
2023-04-09T04:16:59.419Z,5.65
2023-04-09T04:19:30.503Z,6.47
2023-04-09T04:21:58.300Z,7.30
2023-04-09T04:24:26.048Z,6.15
2023-04-09T04:26:54.937Z,6.22
2023-04-09T04:29:23.795Z,7.78
2023-04-09T04:32:00.694Z,6.93
2023-04-09T04:34:34.161Z,7.78
2023-04-09T04:37:08.668Z,6.90
2023-04-09T04:39:36.331Z,7.72
2023-04-09T04:44:38.459Z,8.60
2023-04-09T04:47:15.965Z,7.20
2023-04-09T04:49:43.591Z,6.80
2023-04-09T04:52:11.685Z,6.97
2023-04-09T04:54:43.448Z,8.77
2023-04-09T04:57:16.726Z,8.10
2023-04-09T04:59:44.308Z,8.00
2023-04-09T05:02:14.206Z,8.02
2023-04-09T05:05:15.357Z,7.40
2023-04-09T05:07:49.107Z,7.85
2023-04-09T05:10:16.786Z,9.52
2023-04-09T05:12:47.229Z,9.13
2023-04-09T05:15:22.586Z,9.43
2023-04-09T05:17:50.478Z,6.88
2023-04-09T05:20:19.192Z,8.23
2023-04-09T05:23:03.410Z,7.57
2023-04-09T05:25:36.334Z,7.95
2023-04-09T05:28:06.311Z,9.73
2023-04-09T05:30:35.687Z,8.32
2023-04-09T05:33:05.340Z,9.60
2023-04-09T05:35:33.902Z,15.52
2023-04-09T05:38:01.685Z,12.55
2023-04-09T05:40:29.379Z,11.40
2023-04-09T05:42:57.025Z,12.68
2023-04-09T05:45:37.039Z,8.98
2023-04-09T05:48:05.678Z,10.13
2023-04-09T05:50:38.195Z,9.77
2023-04-09T05:53:15.834Z,8.30
2023-04-09T05:55:43.430Z,10.43
2023-04-09T05:58:11.510Z,12.55
2023-04-09T06:00:40.793Z,10.10
2023-04-09T06:03:10.679Z,8.68
2023-04-09T06:05:39.025Z,11.23
2023-04-09T06:08:07.939Z,11.75
2023-04-09T06:10:35.790Z,10.07
2023-04-09T06:13:03.464Z,10.00
2023-04-09T06:15:31.377Z,12.73
2023-04-09T06:18:00.382Z,10.88
2023-04-09T06:20:28.050Z,11.65
2023-04-09T06:22:55.590Z,9.50
2023-04-09T06:25:23.668Z,10.48
2023-04-09T06:27:51.461Z,10.90
2023-04-09T06:30:19.235Z,13.48
2023-04-09T06:32:54.257Z,16.48
2023-04-09T06:35:24.287Z,13.45
2023-04-09T06:37:51.929Z,11.32
2023-04-09T06:40:23.029Z,11.43
2023-04-09T06:42:50.890Z,11.70
2023-04-09T06:45:23.928Z,12.65
2023-04-09T06:47:51.609Z,10.75
2023-04-09T06:50:19.415Z,11.07
2023-04-09T06:52:48.294Z,10.68
2023-04-09T06:55:16.488Z,11.68
2023-04-09T06:57:44.038Z,13.25
2023-04-09T07:00:12.417Z,11.18
2023-04-09T07:02:40.646Z,12.45
2023-04-09T07:05:09.209Z,11.98
2023-04-09T07:07:36.798Z,13.63
2023-04-09T07:10:07.657Z,14.80
2023-04-09T07:12:35.705Z,12.07
2023-04-09T07:15:06.062Z,16.42
2023-04-09T07:17:33.987Z,11.85
2023-04-09T07:20:01.793Z,11.70
2023-04-09T07:22:30.568Z,12.68
2023-04-09T07:24:58.210Z,12.85
2023-04-09T07:27:30.444Z,14.57
2023-04-09T07:29:58.743Z,11.85
2023-04-09T07:32:26.820Z,12.95
2023-04-09T07:34:54.912Z,11.65
2023-04-09T07:37:22.495Z,13.10
2023-04-09T07:39:51.191Z,12.10
2023-04-09T07:42:18.763Z,12.20
2023-04-09T07:44:47.698Z,13.38
2023-04-09T07:47:15.562Z,12.63
2023-04-09T07:49:43.121Z,13.25
2023-04-09T07:52:10.814Z,10.63
2023-04-09T07:54:38.395Z,11.10
2023-04-09T07:57:05.925Z,10.63
2023-04-09T07:59:33.487Z,10.68
2023-04-09T08:02:02.494Z,10.50
2023-04-09T08:04:30.602Z,12.75
2023-04-09T08:06:58.248Z,12.70
2023-04-09T08:09:25.928Z,10.35
2023-04-09T08:11:53.465Z,11.60
2023-04-09T08:14:21.304Z,11.52
2023-04-09T08:16:50.000Z,13.98
2023-04-09T08:19:20.058Z,11.82
2023-04-09T08:21:48.795Z,11.27
2023-04-09T08:24:16.465Z,11.45
2023-04-09T08:26:44.706Z,11.20
2023-04-09T08:29:13.920Z,11.80
2023-04-09T08:31:41.819Z,11.32
2023-04-09T08:34:09.513Z,10.60
2023-04-09T08:36:39.532Z,9.35
2023-04-09T08:39:07.199Z,9.13
2023-04-09T08:41:36.526Z,10.32
2023-04-09T08:44:04.317Z,9.82
2023-04-09T08:46:31.878Z,8.57
2023-04-09T08:48:59.461Z,7.80
2023-04-09T08:55:40.975Z,6.35
2023-04-09T08:58:09.426Z,7.00
2023-04-09T09:00:39.413Z,7.53
2023-04-09T09:03:14.029Z,7.32
2023-04-09T09:18:14.006Z,4.07
2023-04-09T09:20:41.599Z,3.50
2023-04-09T09:23:10.287Z,3.65
2023-04-09T09:25:41.535Z,4.68
2023-04-09T09:28:10.278Z,4.13
2023-04-09T09:30:39.814Z,5.68
2023-04-09T09:33:09.007Z,4.55
2023-04-09T09:35:50.298Z,4.32
2023-04-09T09:38:18.891Z,5.10
2023-04-09T09:40:54.039Z,4.38
2023-04-09T09:43:21.700Z,3.17
2023-04-09T09:45:51.243Z,2.80
2023-04-09T09:48:18.910Z,2.92
2023-04-09T09:50:49.599Z,2.50
2023-04-09T09:53:23.351Z,3.53
2023-04-09T09:55:54.432Z,3.17
2023-04-09T09:58:28.703Z,3.15
2023-04-09T10:00:57.799Z,2.95
2023-04-09T10:03:28.455Z,5.15
2023-04-09T10:06:01.613Z,3.65
2023-04-09T10:08:33.295Z,2.70
2023-04-09T10:19:23.816Z,2.92
2023-04-09T10:21:58.537Z,3.38
2023-04-09T10:24:26.693Z,3.78
2023-04-09T10:26:55.897Z,2.95
2023-04-09T10:29:29.228Z,3.67
2023-04-09T10:34:37.316Z,2.53
2023-04-09T10:37:09.178Z,2.38
2023-04-09T10:39:42.318Z,3.10
2023-04-09T10:42:14.655Z,2.65
2023-04-09T10:44:42.730Z,2.35
2023-04-09T10:47:11.647Z,2.55
2023-04-09T10:49:40.603Z,3.22
2023-04-09T10:52:12.240Z,3.15
2023-04-09T10:54:43.813Z,2.78
2023-04-09T10:57:13.660Z,3.83
2023-04-09T10:59:42.743Z,2.95
2023-04-09T11:02:19.015Z,2.88
2023-04-09T11:05:03.369Z,3.05
2023-04-09T11:07:36.618Z,2.72
2023-04-09T11:10:04.496Z,3.45
2023-04-09T11:12:32.003Z,3.17
2023-04-09T11:14:59.581Z,2.67
2023-04-09T11:17:27.330Z,4.43
2023-04-09T11:19:56.419Z,3.03
2023-04-09T11:22:23.975Z,2.85
2023-04-09T11:24:54.897Z,3.10
2023-04-09T11:27:22.523Z,2.63
2023-04-09T11:29:50.126Z,2.78
2023-04-09T11:32:17.821Z,2.45
2023-04-09T11:34:45.445Z,2.50
2023-04-09T11:37:16.702Z,3.47
2023-04-09T11:39:45.441Z,2.85
2023-04-09T11:42:16.476Z,2.42
2023-04-09T11:44:46.316Z,2.97
2023-04-09T11:47:14.816Z,2.88
2023-04-09T11:49:42.918Z,3.10
2023-04-09T11:52:10.942Z,2.63
2023-04-09T11:54:38.582Z,3.40
2023-04-09T11:57:06.729Z,2.05
2023-04-09T11:59:38.862Z,2.08
2023-04-09T12:02:07.774Z,2.67
2023-04-09T12:04:35.494Z,2.88
2023-04-09T12:07:03.123Z,3.83
2023-04-09T12:09:30.698Z,5.70
2023-04-09T12:12:02.057Z,3.50
2023-04-09T12:14:29.632Z,4.90
2023-04-09T12:16:58.577Z,6.68
2023-04-09T12:19:27.951Z,3.53
2023-04-09T12:21:58.395Z,2.63
2023-04-09T12:24:27.959Z,2.40
2023-04-09T12:26:56.437Z,1.95
2023-04-09T12:29:25.806Z,2.65
2023-04-09T12:31:53.880Z,3.13
2023-04-09T12:34:22.873Z,2.70
2023-04-09T12:36:50.440Z,2.00
2023-04-09T12:39:17.960Z,2.47
2023-04-09T12:41:45.573Z,2.03
2023-04-09T12:44:13.186Z,2.67
2023-04-09T12:46:40.730Z,2.70
2023-04-09T12:49:08.536Z,2.10
2023-04-09T12:51:37.462Z,2.67
2023-04-09T12:54:05.579Z,2.20
2023-04-09T12:56:33.107Z,2.60
2023-04-09T12:59:00.660Z,2.78
2023-04-09T13:01:28.275Z,3.05
2023-04-09T13:03:56.156Z,2.97
2023-04-09T13:06:23.900Z,2.80
2023-04-09T13:08:52.849Z,2.28
2023-04-09T13:11:20.414Z,2.28
2023-04-09T13:13:47.963Z,2.92
2023-04-09T13:16:16.075Z,2.05
2023-04-09T13:18:43.621Z,1.90
2023-04-09T13:21:12.982Z,2.30
2023-04-09T13:23:40.554Z,2.50
2023-04-09T13:26:09.437Z,2.60
2023-04-09T13:28:37.297Z,2.40
2023-04-09T13:31:06.389Z,2.22
2023-04-09T13:33:34.071Z,3.22
2023-04-09T13:36:01.951Z,2.40
2023-04-09T13:38:29.574Z,2.35
2023-04-09T13:40:57.149Z,2.20
2023-04-09T13:43:28.308Z,2.58
2023-04-09T13:45:57.227Z,2.17
2023-04-09T13:48:25.502Z,2.20
2023-04-09T13:50:53.110Z,1.92
2023-04-09T13:53:21.897Z,1.88
2023-04-09T13:55:49.411Z,1.65
2023-04-09T13:58:16.975Z,2.10
2023-04-09T14:00:45.929Z,2.25
2023-04-09T14:03:14.230Z,2.03
2023-04-09T14:05:41.943Z,2.60
2023-04-09T14:08:09.562Z,2.10
2023-04-09T14:10:37.131Z,2.35
2023-04-09T14:13:07.244Z,2.20
2023-04-09T14:15:35.752Z,2.17
2023-04-09T14:18:04.870Z,2.78
2023-04-09T14:20:32.532Z,2.05
2023-04-09T14:23:00.581Z,3.67
2023-04-09T14:25:28.260Z,2.22
2023-04-09T14:27:55.825Z,2.40
2023-04-09T14:30:23.797Z,2.63
2023-04-09T14:32:51.494Z,2.67
2023-04-09T14:35:20.838Z,2.10
2023-04-09T14:37:48.430Z,3.13
2023-04-09T14:40:16.004Z,2.70
2023-04-09T14:42:43.587Z,2.47
2023-04-09T14:45:12.441Z,1.95
2023-04-09T14:47:40.110Z,2.15
2023-04-09T14:50:10.138Z,1.90
2023-04-09T14:52:39.181Z,2.05
2023-04-09T14:55:12.053Z,4.07
2023-04-09T14:57:40.543Z,2.90
2023-04-09T15:00:09.685Z,4.30
2023-04-09T15:02:38.450Z,2.30
2023-04-09T15:05:06.948Z,2.25
2023-04-09T15:07:34.717Z,1.80
2023-04-09T15:10:03.874Z,2.35
2023-04-09T15:12:32.348Z,2.45
2023-04-09T15:15:01.345Z,2.15
2023-04-09T15:17:30.531Z,1.92
2023-04-09T15:19:59.394Z,3.38
2023-04-09T15:22:27.097Z,3.58
2023-04-09T15:24:54.911Z,3.15
2023-04-09T15:27:23.930Z,2.40
2023-04-09T15:29:51.741Z,2.08
2023-04-09T15:32:19.566Z,2.10
2023-04-09T15:34:47.165Z,2.35
2023-04-09T15:37:14.713Z,2.33
2023-04-09T15:39:42.326Z,2.30
2023-04-09T15:42:11.181Z,2.30
2023-04-09T15:44:41.389Z,2.15
2023-04-09T15:47:09.190Z,2.50
2023-04-09T15:49:37.427Z,2.83
2023-04-09T15:52:05.748Z,2.15
2023-04-09T15:54:33.255Z,2.33
2023-04-09T15:57:00.801Z,1.92
2023-04-09T15:59:28.326Z,2.30
2023-04-09T16:01:57.292Z,1.80
2023-04-09T16:04:25.015Z,2.10
2023-04-09T16:06:53.946Z,2.22
2023-04-09T16:09:21.522Z,2.22
2023-04-09T16:11:49.044Z,2.08
2023-04-09T16:14:16.583Z,2.10
2023-04-09T16:16:46.969Z,2.22
2023-04-09T16:19:16.103Z,2.05
2023-04-09T16:21:45.347Z,2.20
2023-04-09T16:24:13.499Z,2.00
2023-04-09T16:26:41.259Z,13.13
2023-04-09T16:29:09.372Z,1.90
2023-04-09T16:31:37.999Z,2.75
2023-04-09T16:34:06.076Z,1.95
2023-04-09T16:36:36.962Z,1.60
2023-04-09T16:39:05.098Z,2.30
2023-04-09T16:41:34.341Z,3.10
2023-04-09T16:44:03.298Z,3.20
2023-04-09T16:46:31.245Z,2.40
2023-04-09T16:48:58.866Z,2.88
2023-04-09T16:51:26.925Z,2.92
2023-04-09T16:53:55.850Z,2.03
2023-04-09T16:56:23.369Z,2.10
2023-04-09T16:58:51.427Z,2.08
2023-04-09T17:01:19.203Z,2.55
2023-04-09T17:03:48.792Z,2.13
2023-04-09T17:06:16.474Z,1.85
2023-04-09T17:08:44.058Z,2.40
2023-04-09T17:11:16.982Z,2.50
2023-04-09T17:13:45.046Z,4.13
2023-04-09T17:16:12.700Z,2.85
2023-04-09T17:18:40.299Z,2.55
2023-04-09T17:21:08.043Z,2.42
2023-04-09T17:23:35.989Z,2.25
2023-04-09T17:26:03.594Z,3.45
2023-04-09T17:28:32.504Z,3.25
2023-04-09T17:31:00.176Z,3.30
2023-04-09T17:33:27.853Z,2.95
2023-04-09T17:35:57.451Z,2.60
2023-04-09T17:38:26.855Z,2.20
2023-04-09T17:40:54.585Z,2.53
2023-04-09T17:43:22.144Z,3.53
2023-04-09T17:45:51.033Z,3.38
2023-04-09T17:48:18.836Z,2.17
2023-04-09T17:50:46.646Z,3.05
2023-04-09T17:53:14.170Z,2.30
2023-04-09T17:55:47.022Z,2.90
2023-04-09T17:58:14.591Z,2.60
2023-04-09T18:00:42.940Z,2.30
2023-04-09T18:03:13.373Z,3.92
2023-04-09T18:05:41.334Z,8.07
2023-04-09T18:08:08.954Z,4.25
2023-04-09T18:10:36.925Z,3.42
2023-04-09T18:13:04.641Z,3.78
2023-04-09T18:15:32.267Z,2.83
2023-04-09T18:18:00.294Z,3.85
2023-04-09T18:20:29.436Z,3.50
2023-04-09T18:22:56.981Z,3.90
2023-04-09T18:25:24.596Z,3.80
2023-04-09T18:27:52.249Z,2.67
2023-04-09T18:30:19.824Z,3.08
2023-04-09T18:32:48.123Z,2.40
2023-04-09T18:35:17.285Z,3.33
2023-04-09T18:37:46.288Z,3.88
2023-04-09T18:40:17.287Z,2.72
2023-04-09T18:42:45.044Z,3.13
2023-04-09T18:45:12.776Z,4.78
2023-04-09T18:47:40.700Z,2.90
2023-04-09T18:50:09.427Z,3.30
2023-04-09T18:52:38.939Z,5.32
2023-04-09T18:55:09.341Z,10.48
2023-04-09T18:57:37.297Z,7.93
2023-04-09T19:00:05.650Z,3.83
2023-04-09T19:02:33.480Z,3.55
2023-04-09T19:05:01.877Z,3.55
2023-04-09T19:07:29.648Z,7.10
2023-04-09T19:09:57.417Z,5.82
2023-04-09T19:12:27.903Z,4.30
2023-04-09T19:14:55.514Z,4.40
2023-04-09T19:17:23.424Z,3.47
2023-04-09T19:19:51.066Z,3.70
2023-04-09T19:22:18.645Z,4.38
2023-04-09T19:24:46.158Z,4.00
2023-04-09T19:27:14.009Z,9.13
2023-04-09T19:29:42.929Z,7.45
2023-04-09T19:32:13.123Z,6.07
2023-04-09T19:34:40.745Z,5.45
2023-04-09T19:37:08.326Z,5.40
2023-04-09T19:39:35.975Z,6.30
2023-04-09T19:42:03.674Z,3.70
2023-04-09T19:44:31.302Z,4.82
2023-04-09T19:47:00.331Z,5.07
2023-04-09T19:49:28.548Z,4.40
2023-04-09T19:51:56.112Z,9.98
2023-04-09T19:54:23.741Z,7.22
2023-04-09T19:56:51.296Z,7.68
2023-04-09T19:59:18.824Z,6.28
2023-04-09T20:01:47.924Z,8.90
2023-04-09T20:04:17.359Z,7.70
2023-04-09T20:06:45.405Z,6.97
2023-04-09T20:09:13.425Z,5.78
2023-04-09T20:11:42.063Z,5.70
2023-04-09T20:14:11.114Z,5.75
2023-04-09T20:16:38.749Z,5.47
2023-04-09T20:19:06.679Z,7.53
2023-04-09T20:21:35.570Z,7.63
2023-04-09T20:24:03.642Z,5.53
2023-04-09T20:26:31.386Z,6.68
2023-04-09T20:28:59.204Z,8.68
2023-04-09T20:31:27.688Z,7.10
2023-04-09T20:33:55.659Z,7.50
2023-04-09T20:36:23.344Z,8.43
2023-04-09T20:38:52.381Z,7.15
2023-04-09T20:41:20.191Z,7.38
2023-04-09T20:43:47.709Z,8.85
2023-04-09T20:46:15.437Z,9.85
2023-04-09T20:48:43.121Z,7.40
2023-04-09T20:51:11.419Z,8.85
2023-04-09T20:53:39.077Z,8.77
2023-04-09T20:56:09.058Z,6.47
2023-04-09T20:58:36.734Z,7.72
2023-04-09T21:01:06.620Z,7.38
2023-04-09T21:03:34.628Z,7.20
2023-04-09T21:06:02.798Z,7.80
2023-04-09T21:08:30.829Z,8.48
2023-04-09T21:10:58.641Z,6.43
2023-04-09T21:13:27.646Z,8.02
2023-04-09T21:15:55.796Z,6.40
2023-04-09T21:18:23.874Z,7.88
2023-04-09T21:20:51.588Z,10.13
2023-04-09T21:23:19.149Z,8.23
2023-04-09T21:25:46.728Z,9.77
2023-04-09T21:28:14.314Z,8.48
2023-04-09T21:30:43.185Z,7.55
2023-04-09T21:33:10.759Z,8.95
2023-04-09T21:35:38.342Z,9.00
2023-04-09T21:38:05.969Z,8.38
2023-04-09T21:40:33.469Z,10.15
2023-04-09T21:43:01.081Z,8.55
2023-04-09T21:45:29.472Z,7.82
2023-04-09T21:47:58.466Z,8.05
2023-04-09T21:50:26.094Z,7.50
2023-04-09T21:52:53.819Z,8.75
2023-04-09T21:55:21.595Z,9.38
2023-04-09T21:57:49.159Z,9.82
2023-04-09T22:00:17.610Z,7.68
2023-04-09T22:02:45.219Z,8.77
2023-04-09T22:05:14.519Z,7.82
2023-04-09T22:07:42.809Z,10.57
2023-04-09T22:10:11.124Z,9.68
2023-04-09T22:12:38.962Z,12.25
2023-04-09T22:15:07.111Z,10.98
2023-04-09T22:17:34.684Z,9.40
2023-04-09T22:20:02.604Z,8.18
2023-04-09T22:22:32.267Z,7.50
2023-04-09T22:24:59.831Z,8.95
2023-04-09T22:27:27.807Z,7.35
2023-04-09T22:29:56.017Z,7.63
2023-04-09T22:32:23.658Z,7.75
2023-04-09T22:34:51.301Z,9.95
2023-04-09T22:37:19.295Z,8.98
2023-04-09T22:39:48.640Z,8.65
2023-04-09T22:42:16.287Z,9.52
2023-04-09T22:44:43.820Z,9.02
2023-04-09T22:47:11.394Z,8.38
2023-04-09T22:49:39.494Z,9.38
2023-04-09T22:52:08.108Z,8.40
2023-04-09T22:54:37.808Z,8.00
2023-04-09T22:57:06.750Z,9.23
2023-04-09T23:02:06.948Z,7.13
2023-04-09T23:04:34.916Z,10.30
2023-04-09T23:07:02.795Z,8.48
2023-04-09T23:09:30.781Z,9.25
2023-04-09T23:11:58.555Z,8.70
2023-04-09T23:14:27.463Z,11.02
2023-04-09T23:16:55.135Z,8.15
2023-04-09T23:19:22.660Z,9.20
2023-04-09T23:21:50.239Z,10.60
2023-04-09T23:24:19.082Z,8.60
2023-04-09T23:26:46.655Z,7.70
2023-04-09T23:29:14.296Z,8.32
2023-04-09T23:31:43.224Z,8.75
2023-04-09T23:34:10.770Z,9.57
2023-04-09T23:36:38.340Z,8.38
2023-04-09T23:39:06.006Z,9.85
2023-04-09T23:41:33.608Z,11.60
2023-04-09T23:44:01.241Z,10.60
2023-04-09T23:46:28.851Z,9.63
2023-04-09T23:48:57.804Z,9.25
2023-04-09T23:51:25.945Z,10.85
2023-04-09T23:53:53.730Z,10.63
2023-04-09T23:56:21.403Z,11.43
2023-04-09T23:58:48.998Z,9.32
